sensor_id;sensor_type;location;lat;lon;timestamp;P1;durP1;ratioP1;P2;durP2;ratioP2
51242;SDS011;37812;47.556;18.718;2022-08-11T00:02:54;7.45;;;3.75;;
51242;SDS011;37812;47.556;18.718;2022-08-11T00:05:20;7.55;;;3.65;;
51242;SDS011;37812;47.556;18.718;2022-08-11T00:07:48;7.53;;;3.70;;
51242;SDS011;37812;47.556;18.718;2022-08-11T00:10:24;7.30;;;3.75;;
51242;SDS011;37812;47.556;18.718;2022-08-11T00:13:02;7.50;;;3.78;;
51242;SDS011;37812;47.556;18.718;2022-08-11T00:15:42;7.70;;;3.72;;
51242;SDS011;37812;47.556;18.718;2022-08-11T00:18:10;7.68;;;3.83;;
51242;SDS011;37812;47.556;18.718;2022-08-11T00:20:39;7.57;;;3.90;;
51242;SDS011;37812;47.556;18.718;2022-08-11T00:23:09;7.50;;;3.67;;
51242;SDS011;37812;47.556;18.718;2022-08-11T00:25:42;7.70;;;3.72;;
51242;SDS011;37812;47.556;18.718;2022-08-11T00:28:27;7.53;;;3.97;;
51242;SDS011;37812;47.556;18.718;2022-08-11T00:31:06;7.37;;;3.62;;
51242;SDS011;37812;47.556;18.718;2022-08-11T00:36:12;7.72;;;3.85;;
51242;SDS011;37812;47.556;18.718;2022-08-11T00:38:40;7.53;;;4.00;;
51242;SDS011;37812;47.556;18.718;2022-08-11T00:43:49;9.60;;;3.65;;
51242;SDS011;37812;47.556;18.718;2022-08-11T00:57:42;7.50;;;3.90;;
51242;SDS011;37812;47.556;18.718;2022-08-11T01:03:47;7.55;;;3.80;;
51242;SDS011;37812;47.556;18.718;2022-08-11T01:06:30;7.30;;;3.70;;
51242;SDS011;37812;47.556;18.718;2022-08-11T01:29:01;7.85;;;3.80;;
51242;SDS011;37812;47.556;18.718;2022-08-11T01:31:39;7.53;;;3.85;;
51242;SDS011;37812;47.556;18.718;2022-08-11T01:59:48;7.93;;;4.20;;
51242;SDS011;37812;47.556;18.718;2022-08-11T02:02:15;7.55;;;3.95;;
51242;SDS011;37812;47.556;18.718;2022-08-11T02:11:17;7.40;;;3.62;;
51242;SDS011;37812;47.556;18.718;2022-08-11T02:22:30;7.70;;;4.12;;
51242;SDS011;37812;47.556;18.718;2022-08-11T02:42:30;7.93;;;4.32;;
51242;SDS011;37812;47.556;18.718;2022-08-11T02:55:01;7.40;;;3.75;;
51242;SDS011;37812;47.556;18.718;2022-08-11T02:57:10;7.90;;;4.47;;
51242;SDS011;37812;47.556;18.718;2022-08-11T02:59:52;7.85;;;3.80;;
51242;SDS011;37812;47.556;18.718;2022-08-11T03:12:57;8.13;;;4.00;;
51242;SDS011;37812;47.556;18.718;2022-08-11T03:16:23;7.75;;;4.00;;
51242;SDS011;37812;47.556;18.718;2022-08-11T03:22:12;7.45;;;3.70;;
51242;SDS011;37812;47.556;18.718;2022-08-11T03:30:26;9.32;;;4.28;;
51242;SDS011;37812;47.556;18.718;2022-08-11T03:33:27;7.50;;;4.07;;
51242;SDS011;37812;47.556;18.718;2022-08-11T03:41:34;7.70;;;4.22;;
51242;SDS011;37812;47.556;18.718;2022-08-11T03:47:05;7.50;;;4.00;;
51242;SDS011;37812;47.556;18.718;2022-08-11T03:49:36;8.15;;;4.10;;
51242;SDS011;37812;47.556;18.718;2022-08-11T04:00:19;7.55;;;3.90;;
51242;SDS011;37812;47.556;18.718;2022-08-11T04:11:50;7.90;;;4.28;;
51242;SDS011;37812;47.556;18.718;2022-08-11T04:17:57;7.40;;;3.80;;
51242;SDS011;37812;47.556;18.718;2022-08-11T05:04:14;7.87;;;4.10;;
51242;SDS011;37812;47.556;18.718;2022-08-11T05:13:27;8.43;;;4.20;;
51242;SDS011;37812;47.556;18.718;2022-08-11T05:16:17;8.43;;;4.45;;
51242;SDS011;37812;47.556;18.718;2022-08-11T05:19:06;8.93;;;4.62;;
51242;SDS011;37812;47.556;18.718;2022-08-11T05:21:59;8.25;;;4.50;;
51242;SDS011;37812;47.556;18.718;2022-08-11T05:24:47;7.70;;;4.70;;
51242;SDS011;37812;47.556;18.718;2022-08-11T05:30:43;8.23;;;4.70;;
51242;SDS011;37812;47.556;18.718;2022-08-11T05:33:29;7.50;;;3.97;;
51242;SDS011;37812;47.556;18.718;2022-08-11T05:39:19;9.07;;;4.37;;
51242;SDS011;37812;47.556;18.718;2022-08-11T05:42:07;7.82;;;4.60;;
51242;SDS011;37812;47.556;18.718;2022-08-11T05:44:52;7.50;;;4.10;;
51242;SDS011;37812;47.556;18.718;2022-08-11T05:47:40;8.27;;;4.95;;
51242;SDS011;37812;47.556;18.718;2022-08-11T05:50:26;8.90;;;4.40;;
51242;SDS011;37812;47.556;18.718;2022-08-11T05:53:12;8.38;;;4.72;;
51242;SDS011;37812;47.556;18.718;2022-08-11T05:55:58;8.05;;;5.22;;
51242;SDS011;37812;47.556;18.718;2022-08-11T05:58:46;8.63;;;5.78;;
51242;SDS011;37812;47.556;18.718;2022-08-11T06:01:29;8.15;;;5.50;;
51242;SDS011;37812;47.556;18.718;2022-08-11T06:03:56;8.00;;;5.18;;
51242;SDS011;37812;47.556;18.718;2022-08-11T06:09:27;8.20;;;5.35;;
51242;SDS011;37812;47.556;18.718;2022-08-11T06:11:59;8.13;;;5.28;;
51242;SDS011;37812;47.556;18.718;2022-08-11T06:14:28;8.20;;;5.60;;
51242;SDS011;37812;47.556;18.718;2022-08-11T06:16:57;8.10;;;4.87;;
51242;SDS011;37812;47.556;18.718;2022-08-11T06:19:31;8.18;;;5.35;;
51242;SDS011;37812;47.556;18.718;2022-08-11T06:22:00;7.60;;;4.30;;
51242;SDS011;37812;47.556;18.718;2022-08-11T06:24:27;8.25;;;5.28;;
51242;SDS011;37812;47.556;18.718;2022-08-11T06:26:53;8.00;;;5.22;;
51242;SDS011;37812;47.556;18.718;2022-08-11T06:29:21;8.30;;;5.22;;
51242;SDS011;37812;47.556;18.718;2022-08-11T06:31:50;8.20;;;4.93;;
51242;SDS011;37812;47.556;18.718;2022-08-11T06:34:39;8.05;;;4.87;;
51242;SDS011;37812;47.556;18.718;2022-08-11T06:43:43;7.93;;;5.00;;
51242;SDS011;37812;47.556;18.718;2022-08-11T06:46:14;7.97;;;5.45;;
51242;SDS011;37812;47.556;18.718;2022-08-11T06:48:47;8.00;;;5.20;;
51242;SDS011;37812;47.556;18.718;2022-08-11T06:51:14;7.87;;;4.90;;
51242;SDS011;37812;47.556;18.718;2022-08-11T06:53:42;8.02;;;5.15;;
51242;SDS011;37812;47.556;18.718;2022-08-11T06:56:11;8.00;;;4.50;;
51242;SDS011;37812;47.556;18.718;2022-08-11T06:58:57;8.23;;;4.60;;
51242;SDS011;37812;47.556;18.718;2022-08-11T07:02:05;9.07;;;4.87;;
51242;SDS011;37812;47.556;18.718;2022-08-11T07:13:11;7.60;;;4.25;;
51242;SDS011;37812;47.556;18.718;2022-08-11T07:15:58;7.62;;;4.40;;
51242;SDS011;37812;47.556;18.718;2022-08-11T07:18:26;7.90;;;4.50;;
51242;SDS011;37812;47.556;18.718;2022-08-11T07:21:28;8.45;;;4.45;;
51242;SDS011;37812;47.556;18.718;2022-08-11T07:24:16;7.95;;;4.35;;
51242;SDS011;37812;47.556;18.718;2022-08-11T07:27:03;7.65;;;4.55;;
51242;SDS011;37812;47.556;18.718;2022-08-11T07:29:50;7.55;;;4.43;;
51242;SDS011;37812;47.556;18.718;2022-08-11T07:32:24;7.80;;;4.70;;
51242;SDS011;37812;47.556;18.718;2022-08-11T07:34:55;8.07;;;4.78;;
51242;SDS011;37812;47.556;18.718;2022-08-11T07:37:27;8.83;;;4.90;;
51242;SDS011;37812;47.556;18.718;2022-08-11T07:39:58;8.00;;;4.90;;
51242;SDS011;37812;47.556;18.718;2022-08-11T07:42:29;7.90;;;4.68;;
51242;SDS011;37812;47.556;18.718;2022-08-11T07:45:01;8.20;;;4.90;;
51242;SDS011;37812;47.556;18.718;2022-08-11T07:47:49;7.80;;;4.80;;
51242;SDS011;37812;47.556;18.718;2022-08-11T07:50:42;7.80;;;4.80;;
51242;SDS011;37812;47.556;18.718;2022-08-11T07:53:28;7.95;;;4.60;;
51242;SDS011;37812;47.556;18.718;2022-08-11T07:55:55;8.05;;;5.00;;
51242;SDS011;37812;47.556;18.718;2022-08-11T07:58:25;8.10;;;4.80;;
51242;SDS011;37812;47.556;18.718;2022-08-11T08:01:11;7.78;;;4.78;;
51242;SDS011;37812;47.556;18.718;2022-08-11T08:04:01;7.70;;;4.78;;
51242;SDS011;37812;47.556;18.718;2022-08-11T08:06:47;8.02;;;4.90;;
51242;SDS011;37812;47.556;18.718;2022-08-11T08:09:33;8.85;;;5.05;;
51242;SDS011;37812;47.556;18.718;2022-08-11T08:12:22;8.35;;;5.20;;
51242;SDS011;37812;47.556;18.718;2022-08-11T08:15:09;7.97;;;5.28;;
51242;SDS011;37812;47.556;18.718;2022-08-11T08:17:56;8.00;;;5.15;;
51242;SDS011;37812;47.556;18.718;2022-08-11T08:20:38;7.85;;;5.00;;
51242;SDS011;37812;47.556;18.718;2022-08-11T08:23:10;7.95;;;4.93;;
51242;SDS011;37812;47.556;18.718;2022-08-11T08:25:39;8.27;;;5.20;;
51242;SDS011;37812;47.556;18.718;2022-08-11T08:28:09;8.27;;;5.05;;
51242;SDS011;37812;47.556;18.718;2022-08-11T08:30:38;7.72;;;4.85;;
51242;SDS011;37812;47.556;18.718;2022-08-11T08:33:33;7.90;;;5.18;;
51242;SDS011;37812;47.556;18.718;2022-08-11T08:36:03;8.10;;;5.00;;
51242;SDS011;37812;47.556;18.718;2022-08-11T08:41:06;7.97;;;5.05;;
51242;SDS011;37812;47.556;18.718;2022-08-11T08:43:34;8.25;;;5.20;;
51242;SDS011;37812;47.556;18.718;2022-08-11T08:46:02;8.10;;;5.05;;
51242;SDS011;37812;47.556;18.718;2022-08-11T08:48:33;8.45;;;5.15;;
51242;SDS011;37812;47.556;18.718;2022-08-11T08:51:00;8.15;;;4.90;;
51242;SDS011;37812;47.556;18.718;2022-08-11T08:54:17;8.38;;;4.62;;
51242;SDS011;37812;47.556;18.718;2022-08-11T08:56:47;7.95;;;4.70;;
51242;SDS011;37812;47.556;18.718;2022-08-11T08:59:19;8.55;;;4.60;;
51242;SDS011;37812;47.556;18.718;2022-08-11T09:01:47;7.72;;;4.62;;
51242;SDS011;37812;47.556;18.718;2022-08-11T09:04:26;7.80;;;4.70;;
51242;SDS011;37812;47.556;18.718;2022-08-11T09:06:54;7.60;;;4.50;;
51242;SDS011;37812;47.556;18.718;2022-08-11T09:09:22;7.82;;;4.60;;
51242;SDS011;37812;47.556;18.718;2022-08-11T09:11:49;7.97;;;4.90;;
51242;SDS011;37812;47.556;18.718;2022-08-11T09:14:19;7.95;;;4.90;;
51242;SDS011;37812;47.556;18.718;2022-08-11T09:16:46;8.23;;;4.70;;
51242;SDS011;37812;47.556;18.718;2022-08-11T09:19:14;7.70;;;4.62;;
51242;SDS011;37812;47.556;18.718;2022-08-11T09:21:45;7.55;;;4.30;;
51242;SDS011;37812;47.556;18.718;2022-08-11T09:24:32;7.90;;;4.30;;
51242;SDS011;37812;47.556;18.718;2022-08-11T09:27:19;7.60;;;4.20;;
51242;SDS011;37812;47.556;18.718;2022-08-11T09:29:46;7.93;;;4.60;;
51242;SDS011;37812;47.556;18.718;2022-08-11T09:32:13;7.85;;;4.57;;
51242;SDS011;37812;47.556;18.718;2022-08-11T09:34:44;7.70;;;4.60;;
51242;SDS011;37812;47.556;18.718;2022-08-11T09:37:10;8.18;;;4.55;;
51242;SDS011;37812;47.556;18.718;2022-08-11T09:39:54;7.90;;;4.60;;
51242;SDS011;37812;47.556;18.718;2022-08-11T09:42:40;7.50;;;4.40;;
51242;SDS011;37812;47.556;18.718;2022-08-11T09:45:25;7.90;;;4.47;;
51242;SDS011;37812;47.556;18.718;2022-08-11T09:47:52;7.72;;;4.40;;
51242;SDS011;37812;47.556;18.718;2022-08-11T09:50:19;7.90;;;4.78;;
51242;SDS011;37812;47.556;18.718;2022-08-11T09:52:46;8.00;;;4.65;;
51242;SDS011;37812;47.556;18.718;2022-08-11T09:55:14;7.60;;;4.30;;
51242;SDS011;37812;47.556;18.718;2022-08-11T09:57:44;7.70;;;4.45;;
51242;SDS011;37812;47.556;18.718;2022-08-11T10:00:31;8.30;;;4.57;;
51242;SDS011;37812;47.556;18.718;2022-08-11T10:03:07;8.38;;;4.68;;
51242;SDS011;37812;47.556;18.718;2022-08-11T10:05:37;8.02;;;4.82;;
51242;SDS011;37812;47.556;18.718;2022-08-11T10:08:25;7.82;;;4.45;;
51242;SDS011;37812;47.556;18.718;2022-08-11T10:10:53;8.70;;;4.70;;
51242;SDS011;37812;47.556;18.718;2022-08-11T10:13:21;7.57;;;4.30;;
51242;SDS011;37812;47.556;18.718;2022-08-11T10:15:52;7.70;;;4.50;;
51242;SDS011;37812;47.556;18.718;2022-08-11T10:18:29;7.82;;;4.40;;
51242;SDS011;37812;47.556;18.718;2022-08-11T10:23:42;7.93;;;4.40;;
51242;SDS011;37812;47.556;18.718;2022-08-11T10:26:28;7.82;;;4.62;;
51242;SDS011;37812;47.556;18.718;2022-08-11T10:29:31;7.50;;;4.40;;
51242;SDS011;37812;47.556;18.718;2022-08-11T10:32:22;7.70;;;4.50;;
51242;SDS011;37812;47.556;18.718;2022-08-11T10:35:08;7.72;;;4.45;;
51242;SDS011;37812;47.556;18.718;2022-08-11T10:37:38;7.70;;;4.00;;
51242;SDS011;37812;47.556;18.718;2022-08-11T10:40:07;7.80;;;4.37;;
51242;SDS011;37812;47.556;18.718;2022-08-11T10:42:35;8.30;;;4.40;;
51242;SDS011;37812;47.556;18.718;2022-08-11T10:45:21;7.80;;;4.50;;
51242;SDS011;37812;47.556;18.718;2022-08-11T10:48:07;7.70;;;4.47;;
51242;SDS011;37812;47.556;18.718;2022-08-11T10:50:35;7.50;;;4.15;;
51242;SDS011;37812;47.556;18.718;2022-08-11T10:53:21;7.60;;;4.30;;
51242;SDS011;37812;47.556;18.718;2022-08-11T10:56:07;7.97;;;4.35;;
51242;SDS011;37812;47.556;18.718;2022-08-11T10:58:52;7.57;;;4.18;;
51242;SDS011;37812;47.556;18.718;2022-08-11T11:01:31;7.60;;;4.20;;
51242;SDS011;37812;47.556;18.718;2022-08-11T11:04:22;7.60;;;4.12;;
51242;SDS011;37812;47.556;18.718;2022-08-11T11:09:24;8.63;;;4.28;;
51242;SDS011;37812;47.556;18.718;2022-08-11T11:12:08;7.97;;;4.35;;
51242;SDS011;37812;47.556;18.718;2022-08-11T11:14:56;7.70;;;4.32;;
51242;SDS011;37812;47.556;18.718;2022-08-11T11:17:46;7.60;;;4.30;;
51242;SDS011;37812;47.556;18.718;2022-08-11T11:20:49;7.70;;;4.43;;
51242;SDS011;37812;47.556;18.718;2022-08-11T11:37:03;7.30;;;3.80;;
51242;SDS011;37812;47.556;18.718;2022-08-11T11:39:31;7.50;;;4.20;;
51242;SDS011;37812;47.556;18.718;2022-08-11T11:42:02;7.55;;;4.05;;
51242;SDS011;37812;47.556;18.718;2022-08-11T11:44:30;7.80;;;4.40;;
51242;SDS011;37812;47.556;18.718;2022-08-11T11:46:58;7.78;;;4.25;;
51242;SDS011;37812;47.556;18.718;2022-08-11T11:49:26;7.70;;;4.30;;
51242;SDS011;37812;47.556;18.718;2022-08-11T11:51:54;7.60;;;4.32;;
51242;SDS011;37812;47.556;18.718;2022-08-11T11:54:23;7.72;;;4.18;;
51242;SDS011;37812;47.556;18.718;2022-08-11T11:56:54;7.47;;;4.03;;
51242;SDS011;37812;47.556;18.718;2022-08-11T11:59:23;7.40;;;4.10;;
51242;SDS011;37812;47.556;18.718;2022-08-11T12:02:10;7.40;;;4.18;;
51242;SDS011;37812;47.556;18.718;2022-08-11T12:04:40;7.70;;;4.43;;
51242;SDS011;37812;47.556;18.718;2022-08-11T12:07:07;7.70;;;4.10;;
51242;SDS011;37812;47.556;18.718;2022-08-11T12:09:53;7.47;;;4.05;;
51242;SDS011;37812;47.556;18.718;2022-08-11T12:12:26;7.40;;;4.07;;
51242;SDS011;37812;47.556;18.718;2022-08-11T12:15:11;7.60;;;4.20;;
51242;SDS011;37812;47.556;18.718;2022-08-11T12:17:38;7.68;;;4.30;;
51242;SDS011;37812;47.556;18.718;2022-08-11T12:20:04;12.25;;;4.65;;
51242;SDS011;37812;47.556;18.718;2022-08-11T12:22:32;7.87;;;4.28;;
51242;SDS011;37812;47.556;18.718;2022-08-11T12:25:18;7.50;;;4.00;;
51242;SDS011;37812;47.556;18.718;2022-08-11T12:28:02;8.95;;;4.43;;
51242;SDS011;37812;47.556;18.718;2022-08-11T12:30:28;7.50;;;4.20;;
51242;SDS011;37812;47.556;18.718;2022-08-11T12:32:55;7.60;;;4.30;;
51242;SDS011;37812;47.556;18.718;2022-08-11T12:35:21;7.40;;;4.03;;
51242;SDS011;37812;47.556;18.718;2022-08-11T12:37:48;8.25;;;4.82;;
51242;SDS011;37812;47.556;18.718;2022-08-11T12:40:23;7.90;;;4.30;;
51242;SDS011;37812;47.556;18.718;2022-08-11T12:43:16;7.65;;;4.40;;
51242;SDS011;37812;47.556;18.718;2022-08-11T12:46:13;7.60;;;4.30;;
51242;SDS011;37812;47.556;18.718;2022-08-11T12:48:45;7.72;;;4.20;;
51242;SDS011;37812;47.556;18.718;2022-08-11T12:51:33;7.60;;;4.40;;
51242;SDS011;37812;47.556;18.718;2022-08-11T12:54:22;7.80;;;4.10;;
51242;SDS011;37812;47.556;18.718;2022-08-11T12:56:57;7.70;;;4.07;;
51242;SDS011;37812;47.556;18.718;2022-08-11T12:59:45;7.55;;;4.15;;
51242;SDS011;37812;47.556;18.718;2022-08-11T13:02:31;7.60;;;4.18;;
51242;SDS011;37812;47.556;18.718;2022-08-11T13:05:17;7.50;;;3.85;;
51242;SDS011;37812;47.556;18.718;2022-08-11T13:07:45;7.87;;;4.30;;
51242;SDS011;37812;47.556;18.718;2022-08-11T13:10:13;7.50;;;4.05;;
51242;SDS011;37812;47.556;18.718;2022-08-11T13:13:02;7.65;;;4.32;;
51242;SDS011;37812;47.556;18.718;2022-08-11T13:15:29;7.87;;;4.55;;
51242;SDS011;37812;47.556;18.718;2022-08-11T13:17:56;7.65;;;4.30;;
51242;SDS011;37812;47.556;18.718;2022-08-11T13:20:24;7.80;;;4.10;;
51242;SDS011;37812;47.556;18.718;2022-08-11T13:22:55;7.87;;;4.28;;
51242;SDS011;37812;47.556;18.718;2022-08-11T13:25:24;7.50;;;4.18;;
51242;SDS011;37812;47.556;18.718;2022-08-11T13:27:54;7.62;;;4.20;;
51242;SDS011;37812;47.556;18.718;2022-08-11T13:30:22;7.70;;;4.10;;
51242;SDS011;37812;47.556;18.718;2022-08-11T13:33:09;7.80;;;4.37;;
51242;SDS011;37812;47.556;18.718;2022-08-11T13:35:36;7.60;;;4.28;;
51242;SDS011;37812;47.556;18.718;2022-08-11T13:38:03;8.02;;;4.70;;
51242;SDS011;37812;47.556;18.718;2022-08-11T13:40:31;7.60;;;4.50;;
51242;SDS011;37812;47.556;18.718;2022-08-11T13:42:58;7.90;;;4.75;;
51242;SDS011;37812;47.556;18.718;2022-08-11T13:45:25;7.70;;;4.50;;
51242;SDS011;37812;47.556;18.718;2022-08-11T13:47:55;7.80;;;4.40;;
51242;SDS011;37812;47.556;18.718;2022-08-11T13:50:23;7.57;;;4.40;;
51242;SDS011;37812;47.556;18.718;2022-08-11T13:53:09;7.60;;;4.30;;
51242;SDS011;37812;47.556;18.718;2022-08-11T13:55:40;7.70;;;4.30;;
51242;SDS011;37812;47.556;18.718;2022-08-11T13:58:08;7.70;;;4.30;;
51242;SDS011;37812;47.556;18.718;2022-08-11T14:00:36;8.07;;;4.35;;
51242;SDS011;37812;47.556;18.718;2022-08-11T14:03:04;7.85;;;4.15;;
51242;SDS011;37812;47.556;18.718;2022-08-11T14:05:41;7.57;;;4.07;;
51242;SDS011;37812;47.556;18.718;2022-08-11T14:08:14;8.05;;;4.15;;
51242;SDS011;37812;47.556;18.718;2022-08-11T14:10:46;7.70;;;4.20;;
51242;SDS011;37812;47.556;18.718;2022-08-11T14:13:36;7.62;;;4.30;;
51242;SDS011;37812;47.556;18.718;2022-08-11T14:16:06;7.47;;;4.00;;
51242;SDS011;37812;47.556;18.718;2022-08-11T14:18:36;8.10;;;4.10;;
51242;SDS011;37812;47.556;18.718;2022-08-11T14:21:07;8.00;;;4.20;;
51242;SDS011;37812;47.556;18.718;2022-08-11T14:23:57;7.47;;;3.90;;
51242;SDS011;37812;47.556;18.718;2022-08-11T14:26:24;7.60;;;4.00;;
51242;SDS011;37812;47.556;18.718;2022-08-11T14:28:53;7.95;;;4.25;;
51242;SDS011;37812;47.556;18.718;2022-08-11T14:31:25;7.87;;;4.30;;
51242;SDS011;37812;47.556;18.718;2022-08-11T14:33:55;7.75;;;4.22;;
51242;SDS011;37812;47.556;18.718;2022-08-11T14:36:25;7.70;;;4.32;;
51242;SDS011;37812;47.556;18.718;2022-08-11T14:38:55;7.47;;;4.10;;
51242;SDS011;37812;47.556;18.718;2022-08-11T14:41:22;9.55;;;4.40;;
51242;SDS011;37812;47.556;18.718;2022-08-11T14:44:08;7.90;;;4.43;;
51242;SDS011;37812;47.556;18.718;2022-08-11T14:46:54;8.43;;;4.62;;
51242;SDS011;37812;47.556;18.718;2022-08-11T14:49:30;7.90;;;4.35;;
51242;SDS011;37812;47.556;18.718;2022-08-11T14:52:00;8.00;;;4.47;;
51242;SDS011;37812;47.556;18.718;2022-08-11T14:54:29;8.00;;;4.47;;
51242;SDS011;37812;47.556;18.718;2022-08-11T14:57:15;7.68;;;4.18;;
51242;SDS011;37812;47.556;18.718;2022-08-11T14:59:42;7.40;;;4.07;;
51242;SDS011;37812;47.556;18.718;2022-08-11T15:02:12;7.80;;;4.30;;
51242;SDS011;37812;47.556;18.718;2022-08-11T15:04:57;7.55;;;4.30;;
51242;SDS011;37812;47.556;18.718;2022-08-11T15:07:25;7.55;;;4.20;;
51242;SDS011;37812;47.556;18.718;2022-08-11T15:10:00;7.90;;;4.47;;
51242;SDS011;37812;47.556;18.718;2022-08-11T15:12:30;7.60;;;4.20;;
51242;SDS011;37812;47.556;18.718;2022-08-11T15:14:59;8.90;;;4.10;;
51242;SDS011;37812;47.556;18.718;2022-08-11T15:17:53;7.85;;;4.20;;
51242;SDS011;37812;47.556;18.718;2022-08-11T15:20:21;7.53;;;4.12;;
51242;SDS011;37812;47.556;18.718;2022-08-11T15:23:09;7.53;;;4.25;;
51242;SDS011;37812;47.556;18.718;2022-08-11T15:25:57;7.75;;;4.20;;
51242;SDS011;37812;47.556;18.718;2022-08-11T15:28:26;7.50;;;4.00;;
51242;SDS011;37812;47.556;18.718;2022-08-11T15:31:14;7.60;;;4.28;;
51242;SDS011;37812;47.556;18.718;2022-08-11T15:34:01;7.80;;;4.20;;
51242;SDS011;37812;47.556;18.718;2022-08-11T15:36:48;7.53;;;4.18;;
51242;SDS011;37812;47.556;18.718;2022-08-11T15:46:12;8.07;;;4.28;;
51242;SDS011;37812;47.556;18.718;2022-08-11T15:48:43;7.75;;;4.40;;
51242;SDS011;37812;47.556;18.718;2022-08-11T15:51:15;7.50;;;4.10;;
51242;SDS011;37812;47.556;18.718;2022-08-11T15:53:49;8.20;;;4.43;;
51242;SDS011;37812;47.556;18.718;2022-08-11T15:56:18;7.95;;;4.35;;
51242;SDS011;37812;47.556;18.718;2022-08-11T15:58:49;8.02;;;4.20;;
51242;SDS011;37812;47.556;18.718;2022-08-11T16:01:35;7.45;;;4.15;;
51242;SDS011;37812;47.556;18.718;2022-08-11T16:04:23;7.68;;;4.37;;
51242;SDS011;37812;47.556;18.718;2022-08-11T16:09:19;7.50;;;4.00;;
51242;SDS011;37812;47.556;18.718;2022-08-11T16:11:59;7.50;;;4.07;;
51242;SDS011;37812;47.556;18.718;2022-08-11T16:14:32;7.68;;;4.05;;
51242;SDS011;37812;47.556;18.718;2022-08-11T16:17:20;7.50;;;3.95;;
51242;SDS011;37812;47.556;18.718;2022-08-11T16:19:51;7.80;;;4.43;;
51242;SDS011;37812;47.556;18.718;2022-08-11T16:22:20;7.40;;;4.00;;
51242;SDS011;37812;47.556;18.718;2022-08-11T16:24:53;7.62;;;4.18;;
51242;SDS011;37812;47.556;18.718;2022-08-11T16:27:20;8.25;;;4.32;;
51242;SDS011;37812;47.556;18.718;2022-08-11T16:29:48;7.60;;;4.15;;
51242;SDS011;37812;47.556;18.718;2022-08-11T16:32:17;7.75;;;4.10;;
51242;SDS011;37812;47.556;18.718;2022-08-11T16:34:48;7.40;;;3.90;;
51242;SDS011;37812;47.556;18.718;2022-08-11T16:37:35;7.53;;;4.00;;
51242;SDS011;37812;47.556;18.718;2022-08-11T16:40:21;7.50;;;3.87;;
51242;SDS011;37812;47.556;18.718;2022-08-11T16:42:49;7.47;;;4.10;;
51242;SDS011;37812;47.556;18.718;2022-08-11T16:45:35;7.50;;;4.00;;
51242;SDS011;37812;47.556;18.718;2022-08-11T16:48:22;7.50;;;4.00;;
51242;SDS011;37812;47.556;18.718;2022-08-11T16:50:51;7.43;;;3.95;;
51242;SDS011;37812;47.556;18.718;2022-08-11T16:53:17;7.45;;;3.90;;
51242;SDS011;37812;47.556;18.718;2022-08-11T16:55:44;7.40;;;4.00;;
51242;SDS011;37812;47.556;18.718;2022-08-11T16:58:13;7.78;;;4.12;;
51242;SDS011;37812;47.556;18.718;2022-08-11T17:00:57;7.32;;;3.85;;
51242;SDS011;37812;47.556;18.718;2022-08-11T17:03:26;7.30;;;3.80;;
51242;SDS011;37812;47.556;18.718;2022-08-11T17:06:12;7.37;;;3.92;;
51242;SDS011;37812;47.556;18.718;2022-08-11T17:08:57;7.40;;;3.80;;
51242;SDS011;37812;47.556;18.718;2022-08-11T17:11:49;7.28;;;3.72;;
51242;SDS011;37812;47.556;18.718;2022-08-11T17:14:45;7.40;;;3.75;;
51242;SDS011;37812;47.556;18.718;2022-08-11T17:17:17;7.50;;;3.80;;
51242;SDS011;37812;47.556;18.718;2022-08-11T17:19:51;9.18;;;4.00;;
51242;SDS011;37812;47.556;18.718;2022-08-11T17:22:20;8.05;;;3.80;;
51242;SDS011;37812;47.556;18.718;2022-08-11T17:25:06;8.18;;;3.83;;
51242;SDS011;37812;47.556;18.718;2022-08-11T17:27:34;7.68;;;4.03;;
51242;SDS011;37812;47.556;18.718;2022-08-11T17:30:03;7.32;;;3.70;;
51242;SDS011;37812;47.556;18.718;2022-08-11T17:32:35;7.78;;;4.10;;
51242;SDS011;37812;47.556;18.718;2022-08-11T17:35:22;7.43;;;3.83;;
51242;SDS011;37812;47.556;18.718;2022-08-11T17:40:39;7.30;;;3.90;;
51242;SDS011;37812;47.556;18.718;2022-08-11T17:43:27;7.70;;;4.18;;
51242;SDS011;37812;47.556;18.718;2022-08-11T17:46:16;7.35;;;3.70;;
51242;SDS011;37812;47.556;18.718;2022-08-11T17:49:03;7.40;;;3.80;;
51242;SDS011;37812;47.556;18.718;2022-08-11T17:51:32;7.57;;;3.70;;
51242;SDS011;37812;47.556;18.718;2022-08-11T17:54:19;7.05;;;3.42;;
51242;SDS011;37812;47.556;18.718;2022-08-11T17:57:06;7.40;;;3.55;;
51242;SDS011;37812;47.556;18.718;2022-08-11T17:59:52;7.40;;;3.87;;
51242;SDS011;37812;47.556;18.718;2022-08-11T18:02:27;7.80;;;3.90;;
51242;SDS011;37812;47.556;18.718;2022-08-11T18:05:15;8.88;;;3.80;;
51242;SDS011;37812;47.556;18.718;2022-08-11T18:07:42;7.28;;;3.47;;
51242;SDS011;37812;47.556;18.718;2022-08-11T18:10:29;6.95;;;3.37;;
51242;SDS011;37812;47.556;18.718;2022-08-11T18:13:22;7.60;;;3.80;;
51242;SDS011;37812;47.556;18.718;2022-08-11T18:16:08;7.32;;;3.40;;
51242;SDS011;37812;47.556;18.718;2022-08-11T18:18:53;7.50;;;3.60;;
51242;SDS011;37812;47.556;18.718;2022-08-11T18:21:40;7.20;;;3.70;;
51242;SDS011;37812;47.556;18.718;2022-08-11T18:24:27;7.32;;;3.47;;
51242;SDS011;37812;47.556;18.718;2022-08-11T18:27:16;7.70;;;3.55;;
51242;SDS011;37812;47.556;18.718;2022-08-11T18:30:03;7.47;;;3.80;;
51242;SDS011;37812;47.556;18.718;2022-08-11T18:32:50;7.47;;;3.70;;
51242;SDS011;37812;47.556;18.718;2022-08-11T18:35:37;7.60;;;3.83;;
51242;SDS011;37812;47.556;18.718;2022-08-11T18:38:24;7.50;;;3.42;;
51242;SDS011;37812;47.556;18.718;2022-08-11T18:41:12;7.50;;;3.40;;
51242;SDS011;37812;47.556;18.718;2022-08-11T18:44:01;6.70;;;3.10;;
51242;SDS011;37812;47.556;18.718;2022-08-11T18:46:49;7.20;;;3.50;;
51242;SDS011;37812;47.556;18.718;2022-08-11T18:49:37;8.82;;;3.40;;
51242;SDS011;37812;47.556;18.718;2022-08-11T18:52:24;6.78;;;3.30;;
51242;SDS011;37812;47.556;18.718;2022-08-11T18:55:13;6.90;;;3.28;;
51242;SDS011;37812;47.556;18.718;2022-08-11T18:58:02;6.93;;;3.30;;
51242;SDS011;37812;47.556;18.718;2022-08-11T19:00:50;7.30;;;3.47;;
51242;SDS011;37812;47.556;18.718;2022-08-11T19:03:39;6.57;;;3.10;;
51242;SDS011;37812;47.556;18.718;2022-08-11T19:06:26;7.75;;;3.58;;
51242;SDS011;37812;47.556;18.718;2022-08-11T19:09:16;7.20;;;3.42;;
51242;SDS011;37812;47.556;18.718;2022-08-11T19:12:02;7.18;;;3.50;;
51242;SDS011;37812;47.556;18.718;2022-08-11T19:14:49;7.40;;;3.67;;
51242;SDS011;37812;47.556;18.718;2022-08-11T19:17:35;6.90;;;3.40;;
51242;SDS011;37812;47.556;18.718;2022-08-11T19:20:24;7.20;;;3.60;;
51242;SDS011;37812;47.556;18.718;2022-08-11T19:23:14;7.40;;;3.80;;
51242;SDS011;37812;47.556;18.718;2022-08-11T19:26:00;9.23;;;3.70;;
51242;SDS011;37812;47.556;18.718;2022-08-11T19:28:47;6.90;;;3.40;;
51242;SDS011;37812;47.556;18.718;2022-08-11T19:31:34;7.57;;;4.03;;
51242;SDS011;37812;47.556;18.718;2022-08-11T19:34:20;7.40;;;3.70;;
51242;SDS011;37812;47.556;18.718;2022-08-11T19:37:06;7.60;;;4.07;;
51242;SDS011;37812;47.556;18.718;2022-08-11T19:40:00;7.35;;;3.60;;
51242;SDS011;37812;47.556;18.718;2022-08-11T19:42:50;7.50;;;3.55;;
51242;SDS011;37812;47.556;18.718;2022-08-11T19:45:36;7.60;;;3.70;;
51242;SDS011;37812;47.556;18.718;2022-08-11T19:48:22;8.13;;;4.00;;
51242;SDS011;37812;47.556;18.718;2022-08-11T19:51:09;7.20;;;3.40;;
51242;SDS011;37812;47.556;18.718;2022-08-11T19:53:54;7.37;;;3.42;;
51242;SDS011;37812;47.556;18.718;2022-08-11T19:56:41;6.85;;;3.33;;
51242;SDS011;37812;47.556;18.718;2022-08-11T19:59:27;7.28;;;3.37;;
51242;SDS011;37812;47.556;18.718;2022-08-11T20:02:13;7.50;;;3.72;;